Date,TemperatureHighF,TemperatureAvgF,TemperatureLowF,DewpointHighF,DewpointAvgF,DewpointLowF,HumidityHigh,HumidityAvg,HumidityLow,PressureMaxIn,PressureMinIn,WindSpeedMaxMPH,WindSpeedAvgMPH,GustSpeedMaxMPH,PrecipitationSumIn
2013-1-1,64,37,22,-100,-100,-100,0,0,100,0.00,40.00,2,1,3,0.00
2013-1-2,59,37,21,-100,-100,-100,0,0,100,0.00,40.00,2,1,3,0.00
2013-1-3,36,32,29,-100,-100,-100,0,0,100,0.00,40.00,5,4,7,0.00
2013-1-4,38,31,25,-100,-100,-100,0,0,100,0.00,40.00,5,2,7,0.00
2013-1-5,34,26,19,-100,-100,-100,0,0,100,0.00,40.00,2,1,3,0.00
2013-1-6,53,32,17,-100,-100,-100,0,0,100,0.00,40.00,6,2,6,0.00
2013-1-7,58,47,38,-100,-100,-100,0,0,100,0.00,40.00,6,4,8,0.00
2013-1-8,69,50,37,-100,-100,-100,0,0,100,0.00,40.00,4,1,5,0.00
2013-1-9,66,46,32,-100,-100,-100,0,0,100,0.00,40.00,3,1,5,0.00
2013-1-10,65,45,29,-100,-100,-100,0,0,100,0.00,40.00,2,1,3,0.00
2013-1-11,60,43,32,-100,-100,-100,0,0,100,0.00,40.00,6,2,8,0.00
2013-1-12,58,36,24,-100,-100,-100,0,0,100,0.00,40.00,6,2,8,0.00
2013-1-13,45,30,14,-100,-100,-100,0,0,100,0.00,40.00,5,1,6,0.00
2013-1-14,51,34,24,-100,-100,-100,0,0,100,0.00,40.00,8,4,8,0.00
2013-1-15,51,32,19,-100,-100,-100,0,0,100,0.00,40.00,6,1,6,0.00
2013-1-16,62,36,19,-100,-100,-100,0,0,100,0.00,40.00,3,1,5,0.00
2013-1-17,60,39,21,-100,-100,-100,0,0,100,0.00,40.00,6,2,7,0.00
2013-1-18,70,46,30,-100,-100,-100,0,0,100,0.00,40.00,6,1,7,0.00
2013-1-19,71,46,25,-100,-100,-100,0,0,100,0.00,40.00,2,0,3,0.00
2013-1-20,82,45,26,-100,-100,-100,0,0,100,0.00,40.00,2,-33,4,0.00
2013-1-21,76,48,32,-100,-100,-100,0,0,100,0.00,40.00,4,1,4,0.00
2013-1-22,77,53,32,-100,-100,-100,0,0,100,0.00,40.00,2,1,3,0.00
2013-1-23,83,54,29,-100,-100,-100,0,0,100,0.00,40.00,1,0,3,0.00
2013-1-24,88,57,36,-100,-100,-100,0,0,100,0.00,40.00,3,1,3,0.00
2013-1-25,69,56,47,-100,-100,-100,0,0,100,0.00,40.00,3,1,4,0.00
2013-1-26,65,53,47,-100,-100,-100,0,0,100,0.00,40.00,3,-53,4,0.00
2013-1-27,80,55,44,-100,-100,-100,0,0,100,0.00,40.00,3,1,6,0.00
2013-1-28,78,51,39,-100,-100,-100,0,0,100,0.00,40.00,3,1,7,0.00
2013-1-29,48,38,32,-100,-100,-100,0,0,100,0.00,40.00,12,3,13,0.00
2013-1-30,62,46,25,-100,-100,-100,0,0,100,0.00,40.00,6,2,6,0.00
2013-1-31,73,48,25,-100,-100,-100,0,0,100,0.00,40.00,3,1,3,0.00
2013-2-1,78,45,28,-100,-100,-100,0,0,100,0.00,40.00,2,1,3,0.00
2013-2-2,80,47,29,-100,-100,-100,0,0,100,0.00,40.00,5,1,7,0.00
2013-2-3,63,51,40,-100,-100,-100,0,0,100,0.00,40.00,5,-35,7,0.00
2013-2-4,80,55,41,-100,-100,-100,0,0,100,0.00,40.00,3,1,4,0.00
2013-2-5,83,50,36,-100,-100,-100,0,0,100,0.00,40.00,2,-130,3,0.00
2013-2-6,75,54,36,-100,-100,-100,0,0,100,0.00,40.00,3,1,4,0.00
2013-2-7,74,51,38,-100,-100,-100,0,0,100,0.00,40.00,6,1,6,0.00
2013-2-8,73,58,43,-100,-100,-100,0,0,100,0.00,40.00,8,4,10,0.00
2013-2-9,73,49,32,-100,-100,-100,0,0,100,0.00,40.00,8,2,11,0.00
2013-2-10,68,41,29,-100,-100,-100,0,0,100,0.00,40.00,1,0,3,0.00
2013-2-11,77,45,29,-100,-100,-100,0,0,100,0.00,40.00,4,2,6,0.00
2013-2-12,62,41,28,-100,-100,-100,0,0,100,0.00,40.00,4,2,6,0.00
2013-2-13,72,41,21,-100,-100,-100,0,0,100,0.00,40.00,2,1,5,0.00
2013-2-14,74,42,22,-100,-100,-100,0,0,100,0.00,40.00,2,1,4,0.00
2013-2-15,67,46,33,-100,-100,-100,0,0,100,0.00,40.00,6,2,7,0.00
2013-2-16,74,48,26,-100,-100,-100,0,0,100,0.00,40.00,3,-49,3,0.00
2013-2-17,78,55,28,-100,-100,-100,0,0,100,0.00,40.00,3,1,5,0.00
2013-2-18,73,55,37,-100,-100,-100,0,0,100,0.00,40.00,5,2,8,0.00
2013-2-19,59,48,44,-100,-100,-100,0,0,100,0.00,40.00,6,3,6,0.00
2013-2-20,75,49,32,-100,-100,-100,0,0,100,0.00,40.00,7,4,14,0.00
2013-2-21,59,38,27,-100,-100,-100,0,0,100,0.00,40.00,5,2,7,0.00
2013-2-22,66,43,28,-100,-100,-100,0,0,100,0.00,40.00,5,2,7,0.00
2013-2-23,67,45,27,-100,-100,-100,0,0,100,0.00,40.00,4,2,7,0.00
2013-2-24,69,43,31,-100,-100,-100,0,0,100,0.00,40.00,11,5,13,0.00
2013-2-25,67,40,21,-100,-100,-100,0,0,100,0.00,40.00,6,1,6,0.00
2013-2-26,71,41,29,-100,-100,-100,0,0,100,0.00,40.00,5,2,8,0.00
2013-2-27,59,42,27,-100,-100,-100,0,0,100,0.00,40.00,6,2,6,0.00
2013-2-28,71,45,31,-100,-100,-100,0,0,100,0.00,40.00,6,2,6,0.00
2013-3-1,77,50,29,-100,-100,-100,0,0,100,0.00,40.00,2,1,4,0.00
2013-3-2,84,55,36,-100,-100,-100,0,0,100,0.00,40.00,3,1,3,0.00
2013-3-3,89,60,36,-100,-100,-100,0,0,100,0.00,40.00,4,1,6,0.00
2013-3-4,87,63,45,-100,-100,-100,0,0,100,0.00,40.00,8,2,11,0.00
2013-3-5,64,51,43,-100,-100,-100,0,0,100,0.00,40.00,9,5,13,0.00
2013-3-6,81,59,47,-100,-100,-100,0,0,100,0.00,40.00,10,4,12,0.00
2013-3-7,95,62,49,-100,-100,-100,0,0,100,0.00,40.00,4,1,6,0.00
2013-3-8,75,61,50,-100,-100,-100,0,0,100,0.00,40.00,3,1,6,0.00
2013-3-9,68,51,36,-100,-100,-100,0,0,100,0.00,40.00,6,3,14,0.00
2013-3-10,66,46,32,-100,-100,-100,0,0,100,0.00,40.00,6,1,7,0.00
2013-3-11,80,56,32,-100,-100,-100,0,0,100,0.00,40.00,4,1,5,0.00
2013-3-12,83,59,37,-100,-100,-100,0,0,100,0.00,40.00,4,1,6,0.00
2013-3-13,79,58,46,-100,-100,-100,0,0,100,0.00,40.00,7,-54,9,0.00
2013-3-14,87,62,43,-100,-100,-100,0,0,100,0.00,40.00,5,1,6,0.00
2013-3-15,95,65,44,-100,-100,-100,0,0,100,0.00,40.00,2,1,3,0.00
2013-3-16,95,68,50,-100,-100,-100,0,0,100,0.00,40.00,4,2,7,0.00
2013-3-17,91,66,49,-100,-100,-100,0,0,100,0.00,40.00,7,3,11,0.00
2013-3-18,87,61,45,-100,-100,-100,0,0,100,0.00,40.00,4,2,6,0.00
2013-3-19,85,66,48,-100,-100,-100,0,0,100,0.00,40.00,5,2,7,0.00
2013-3-20,73,62,48,-100,-100,-100,0,0,100,0.00,40.00,6,3,9,0.00
2013-3-21,89,63,46,-100,-100,-100,0,0,100,0.00,40.00,5,2,9,0.00
2013-3-22,86,64,50,-100,-100,-100,0,0,100,0.00,40.00,4,2,7,0.00
2013-3-23,80,62,50,-100,-100,-100,0,0,100,0.00,40.00,10,2,11,0.00
2013-3-24,69,50,35,-100,-100,-100,0,0,100,0.00,40.00,7,2,9,0.00
2013-3-25,62,50,40,-100,-100,-100,0,0,100,0.00,40.00,6,4,8,0.00
2013-3-26,73,53,40,-100,-100,-100,0,0,100,0.00,40.00,6,3,9,0.00
2013-3-27,88,60,47,-100,-100,-100,0,0,100,0.00,40.00,5,2,5,0.00
2013-3-28,89,65,51,-100,-100,-100,0,0,100,0.00,40.00,3,1,4,0.00
2013-3-29,96,72,53,-100,-100,-100,0,0,100,0.00,40.00,4,-35,5,0.00
2013-3-30,98,70,49,-100,-100,-100,0,0,100,0.00,40.00,3,1,6,0.00
2013-3-31,97,70,51,-100,-100,-100,0,0,100,0.00,40.00,2,1,4,0.00
2013-4-1,94,71,53,-100,-100,-100,0,0,100,0.00,40.00,3,1,5,0.00
2013-4-2,91,70,47,-100,-100,-100,0,0,100,0.00,40.00,4,2,7,0.00
2013-4-3,85,60,44,-100,-100,-100,0,0,100,0.00,40.00,5,2,8,0.00
2013-4-4,86,64,46,-100,-100,-100,0,0,100,0.00,40.00,5,-38,8,0.00
2013-4-5,90,69,57,-100,-100,-100,0,0,100,0.00,40.00,6,3,7,0.00
2013-4-6,90,68,53,-100,-100,-100,0,0,100,0.00,40.00,4,1,6,0.00
2013-4-7,93,70,52,-100,-100,-100,0,0,100,0.00,40.00,4,2,6,0.00
2013-4-8,91,71,53,-100,-100,-100,0,0,100,0.00,40.00,7,2,8,0.00
2013-4-9,65,56,51,-100,-100,-100,0,0,100,0.00,40.00,7,2,10,0.00
2013-4-10,74,59,38,-100,-100,-100,0,0,100,0.00,40.00,5,2,9,0.00
2013-4-11,84,56,35,-100,-100,-100,0,0,100,0.00,40.00,5,1,6,0.00
2013-4-12,92,66,51,-100,-100,-100,0,0,100,0.00,40.00,3,1,5,0.00
2013-4-13,95,75,57,-100,-100,-100,0,0,100,0.00,40.00,5,2,6,0.00
2013-4-14,89,72,54,-100,-100,-100,0,0,100,0.00,40.00,7,2,8,0.00
2013-4-15,91,66,54,-100,-100,-100,0,0,100,0.00,40.00,5,2,8,0.00
2013-4-16,92,71,53,-100,-100,-100,0,0,100,0.00,40.00,3,1,6,0.00
2013-4-17,86,64,50,-100,-100,-100,0,0,100,0.00,40.00,8,3,12,0.00
2013-4-18,75,55,37,-100,-100,-100,0,0,100,0.00,40.00,3,2,7,0.00
2013-4-19,78,56,39,-100,-100,-100,0,0,100,0.00,40.00,3,1,5,0.00
2013-4-20,88,60,38,-100,-100,-100,0,0,100,0.00,40.00,6,2,8,0.00
2013-4-21,94,72,47,-100,-100,-100,0,0,100,0.00,40.00,3,1,5,0.00
2013-4-22,98,75,51,-100,-100,-100,0,0,100,0.00,40.00,3,1,7,0.00
2013-4-23,93,69,55,-100,-100,-100,0,0,100,0.00,40.00,8,2,10,0.00
2013-4-24,76,60,40,-100,-100,-100,0,0,100,0.00,40.00,7,4,10,0.00
2013-4-25,86,68,54,-100,-100,-100,0,0,100,0.00,40.00,8,5,10,0.00
2013-4-26,94,71,50,-100,-100,-100,0,0,100,0.00,40.00,4,1,5,0.00
2013-4-27,97,71,57,-100,-100,-100,0,0,100,0.00,40.00,6,2,7,0.00
2013-4-28,92,75,58,-100,-100,-100,0,0,100,0.00,40.00,5,2,7,0.00
2013-4-29,104,76,53,-100,-100,-100,0,0,100,0.00,40.00,3,1,5,0.00
2013-4-30,102,79,58,-100,-100,-100,0,0,100,0.00,40.00,4,2,8,0.00
2013-5-1,99,77,61,-100,-100,-100,0,0,100,0.00,40.00,5,2,5,0.00
2013-5-2,67,57,47,-100,-100,-100,0,0,100,0.00,40.00,9,5,11,0.00
2013-5-3,69,51,39,-100,-100,-100,0,0,100,0.00,40.00,10,4,11,0.00
2013-5-4,96,68,48,-100,-100,-100,0,0,100,0.00,40.00,5,3,8,0.00
2013-5-5,87,73,61,-100,-100,-100,0,0,100,0.00,40.00,10,4,10,0.00
2013-5-6,91,74,63,-100,-100,-100,0,0,100,0.00,40.00,7,3,8,0.00
2013-5-7,87,72,53,-100,-100,-100,0,0,100,0.00,40.00,5,1,7,0.00
2013-5-8,91,73,52,-100,-100,-100,0,0,100,0.00,40.00,5,2,6,0.00
2013-5-9,91,68,53,-100,-100,-100,0,0,100,0.00,40.00,4,-35,6,0.00
2013-5-10,89,67,55,-100,-100,-100,0,0,100,0.00,40.00,6,3,12,0.00
2013-5-11,79,62,49,-100,-100,-100,0,0,100,0.00,40.00,5,2,9,0.00
2013-5-12,83,69,54,-100,-100,-100,0,0,100,0.00,40.00,6,3,7,0.00
2013-5-13,84,68,56,-100,-100,-100,0,0,100,0.00,40.00,6,3,7,0.00
2013-5-14,87,70,57,-100,-100,-100,0,0,100,0.00,40.00,5,1,5,0.00
2013-5-15,100,76,58,-100,-100,-100,0,0,100,0.00,40.00,7,2,8,0.00
2013-5-16,102,74,62,-100,-100,-100,0,0,100,0.00,40.00,6,2,7,0.00
2013-5-17,105,82,58,-100,-100,-100,0,0,100,0.00,40.00,4,1,7,0.00
2013-5-18,97,78,60,-100,-100,-100,0,0,100,0.00,40.00,5,2,7,0.00
2013-5-19,97,75,56,-100,-100,-100,0,0,100,0.00,40.00,5,2,8,0.00
2013-5-20,96,77,58,-100,-100,-100,0,0,100,0.00,40.00,5,3,8,0.00
2013-5-21,97,76,53,-100,-100,-100,0,0,100,0.00,40.00,4,2,6,0.00
2013-5-22,105,77,58,-100,-100,-100,0,0,100,0.00,40.00,2,1,4,0.00
2013-5-23,106,84,64,-100,-100,-100,0,0,100,0.00,40.00,8,1,9,0.00
2013-5-24,102,84,63,-100,-100,-100,0,0,100,0.00,40.00,5,2,7,0.00
2013-5-25,105,86,68,-100,-100,-100,0,0,100,0.00,40.00,6,2,6,0.00
2013-5-26,104,86,60,-100,-100,-100,0,0,100,0.00,40.00,4,1,6,0.00
2013-5-27,107,84,60,-100,-100,-100,0,0,100,0.00,40.00,3,-33,6,0.00
2013-5-28,102,86,59,-100,-100,-100,0,0,100,0.00,40.00,3,2,7,0.00
2013-5-29,95,78,65,-100,-100,-100,0,0,100,0.00,40.00,5,2,7,0.00
2013-5-30,101,83,60,-100,-100,-100,0,0,100,0.00,40.00,5,2,7,0.00
2013-5-31,103,82,65,-100,-100,-100,0,0,100,0.00,40.00,5,2,6,0.00
2013-6-1,109,87,71,-100,-100,-100,0,0,100,0.00,40.00,8,2,10,0.00
2013-6-2,96,80,68,-100,-100,-100,0,0,100,0.00,40.00,9,6,12,0.00
2013-6-3,106,80,63,-100,-100,-100,0,0,100,0.00,40.00,9,3,11,0.00
2013-6-4,107,83,65,-100,-100,-100,0,0,100,0.00,40.00,4,1,4,0.00
2013-6-5,107,81,68,-100,-100,-100,0,0,100,0.00,40.00,3,1,5,0.00
2013-6-6,95,80,69,-100,-100,-100,0,0,100,0.00,40.00,7,4,11,0.00
2013-6-7,94,78,63,-100,-100,-100,0,0,100,0.00,40.00,6,4,10,0.00
2013-6-8,113,82,63,-100,-100,-100,0,0,100,0.00,40.00,5,2,8,0.00
2013-6-9,109,87,72,-100,-100,-100,0,0,100,0.00,40.00,6,2,8,0.00
2013-6-10,108,87,74,-100,-100,-100,0,0,100,0.00,40.00,6,4,8,0.00
2013-6-11,115,91,75,-100,-100,-100,0,0,100,0.00,40.00,5,2,8,0.00
2013-6-12,113,89,73,-100,-100,-100,0,0,100,0.00,40.00,6,3,8,0.00
2013-6-13,102,87,74,-100,-100,-100,0,0,100,0.00,40.00,6,4,9,0.00
2013-6-14,101,80,69,-100,-100,-100,0,0,100,0.00,40.00,6,3,6,0.00
2013-6-15,105,86,66,-100,-100,-100,0,0,100,0.00,40.00,4,2,6,0.00
2013-6-16,111,87,73,-100,-100,-100,0,0,100,0.00,40.00,3,1,5,0.00
2013-6-17,106,85,72,-100,-100,-100,0,0,100,0.00,40.00,8,2,9,0.00
2013-6-18,109,85,70,-100,-100,-100,0,0,100,0.00,40.00,8,4,8,0.00
2013-6-19,108,89,74,-100,-100,-100,0,0,100,0.00,40.00,4,2,7,0.00
2013-6-20,110,86,74,-100,-100,-100,0,0,100,0.00,40.00,4,2,6,0.00
2013-6-22,105,95,79,-100,-100,-100,0,0,100,0.00,40.00,4,2,6,0.00
2013-6-23,102,85,75,-100,-100,-100,0,0,100,0.00,40.00,3,1,5,0.00
2013-6-24,107,85,73,-100,-100,-100,0,0,100,0.00,40.00,4,1,4,0.00
2013-6-25,94,78,69,-100,-100,-100,0,0,100,0.00,40.00,3,1,5,0.00
2013-6-26,100,87,74,-100,-100,-100,0,0,100,0.00,40.00,3,1,5,0.00
2013-6-27,107,84,70,-100,-100,-100,0,0,100,0.00,40.00,3,1,3,0.00
2013-6-28,103,89,78,-100,-100,-100,0,0,100,0.00,40.00,5,3,6,0.00
2013-6-29,106,88,73,-100,-100,-100,0,0,100,0.00,40.00,7,2,9,0.00
2013-6-30,102,90,79,-100,-100,-100,0,0,100,0.00,40.00,9,3,9,0.00
2013-7-1,87,73,65,-100,-100,-100,0,0,100,0.00,40.00,9,4,9,0.00
2013-7-2,90,74,61,-100,-100,-100,0,0,100,0.00,40.00,5,2,5,0.00
2013-7-3,100,84,69,-100,-100,-100,0,0,100,0.00,40.00,5,2,5,0.00
2013-7-4,102,80,65,-100,-100,-100,0,0,100,0.00,40.00,4,1,6,0.00
2013-7-5,106,86,68,-100,-100,-100,0,0,100,0.00,40.00,4,1,4,0.00
2013-7-6,105,82,70,-100,-100,-100,0,0,100,0.00,40.00,4,1,5,0.00
2013-7-7,105,91,78,-100,-100,-100,0,0,100,0.00,40.00,6,3,10,0.00
2013-7-8,100,82,73,-100,-100,-100,0,0,100,0.00,40.00,8,3,10,0.00
2013-7-9,104,88,76,-100,-100,-100,0,0,100,0.00,40.00,8,4,9,0.00
2013-7-10,101,87,73,-100,-100,-100,0,0,100,0.00,40.00,4,3,5,0.00
2013-7-11,103,85,73,-100,-100,-100,0,0,100,0.00,40.00,6,2,6,0.00
2013-7-12,98,84,73,-100,-100,-100,0,0,100,0.00,40.00,4,2,6,0.00
2013-7-13,101,82,68,-100,-100,-100,0,0,100,0.00,40.00,6,2,6,0.00
2013-7-14,107,90,72,-100,-100,-100,0,0,100,0.00,40.00,4,2,6,0.00
2013-7-15,85,74,69,-100,-100,-100,0,0,100,0.00,40.00,7,3,9,0.00
2013-7-16,90,75,63,-100,-100,-100,0,0,100,0.00,40.00,6,3,6,0.00
2013-7-17,81,73,68,-100,-100,-100,0,0,100,0.00,40.00,7,5,11,0.00
2013-7-18,75,67,63,-100,-100,-100,0,0,100,0.00,40.00,5,2,5,0.00
2013-7-19,86,73,65,-100,-100,-100,0,0,100,0.00,40.00,5,3,6,0.00
2013-7-20,93,80,65,-100,-100,-100,0,0,100,0.00,40.00,4,2,7,0.00
2013-7-21,97,79,68,-100,-100,-100,0,0,100,0.00,40.00,4,2,6,0.00
2013-7-22,91,78,66,-100,-100,-100,0,0,100,0.00,40.00,3,1,5,0.00
2013-7-23,98,72,66,-100,-100,-100,0,0,100,0.00,40.00,2,1,5,0.00
2013-7-24,102,81,65,-100,-100,-100,0,0,100,0.00,40.00,2,0,3,0.00
2013-7-25,89,74,65,-100,-100,-100,0,0,100,0.00,40.00,3,1,5,0.00
2013-7-26,90,75,68,-100,-100,-100,0,0,100,0.00,40.00,4,1,7,0.00
2013-7-27,90,74,65,-100,-100,-100,0,0,100,0.00,40.00,4,2,9,0.00
2013-7-28,83,70,65,-100,-100,-100,0,0,100,0.00,40.00,2,0,6,0.00
2013-7-29,91,76,68,-100,-100,-100,0,0,100,0.00,40.00,2,1,3,0.00
2013-7-30,98,83,71,-100,-100,-100,0,0,100,0.00,40.00,4,-146,6,0.00
2013-7-31,102,84,70,-100,-100,-100,0,0,100,0.00,40.00,5,2,6,0.00
2013-8-1,98,85,72,-100,-100,-100,0,0,100,0.00,40.00,6,2,7,0.00
2013-8-2,100,82,71,-100,-100,-100,0,0,100,0.00,40.00,4,1,7,0.00
2013-8-3,100,82,73,-100,-100,-100,0,0,100,0.00,40.00,2,1,4,0.00
2013-8-4,105,90,76,-100,-100,-100,0,0,100,0.00,40.00,6,2,6,0.00
2013-8-5,90,77,71,-100,-100,-100,0,0,100,0.00,40.00,3,1,6,0.00
2013-8-6,84,75,67,-100,-100,-100,0,0,100,0.00,40.00,5,1,5,0.00
2013-8-7,94,80,65,-100,-100,-100,0,0,100,0.00,40.00,4,2,5,0.00
2013-8-8,98,76,67,-100,-100,-100,0,0,100,0.00,40.00,2,0,3,0.00
2013-8-9,102,87,70,-100,-100,-100,0,0,100,0.00,40.00,5,2,7,0.00
2013-8-10,91,79,73,-100,-100,-100,0,0,100,0.00,40.00,6,3,8,0.00
2013-8-11,94,78,63,-100,-100,-100,0,0,100,0.00,40.00,4,2,7,0.00
2013-8-12,97,83,74,-100,-100,-100,0,0,100,0.00,40.00,6,3,6,0.00
2013-8-13,91,79,73,-100,-100,-100,0,0,100,0.00,40.00,6,2,6,0.00
2013-8-14,99,90,78,-100,-100,-100,0,0,100,0.00,40.00,5,3,7,0.00
2013-8-15,97,67,65,-100,-100,-100,0,0,100,0.00,40.00,2,1,2,0.00
2013-8-16,98,79,68,-100,-100,-100,0,0,100,0.00,40.00,2,0,3,0.00
2013-8-17,102,76,68,-100,-100,-100,0,0,100,0.00,40.00,3,1,5,0.00
2013-8-18,100,82,70,-100,-100,-100,0,0,100,0.00,40.00,4,2,6,0.00
2013-8-19,92,72,73,-100,-100,-100,0,0,100,0.00,40.00,4,2,5,0.00
2013-8-20,96,81,69,-100,-100,-100,0,0,100,0.00,40.00,3,1,4,0.00
2013-8-21,98,86,66,-100,-100,-100,0,0,100,0.00,40.00,4,3,6,0.00
2013-8-22,95,87,73,-100,-100,-100,0,0,100,0.00,40.00,5,4,7,0.00
2013-8-23,94,82,69,-100,-100,-100,0,0,100,0.00,40.00,7,4,8,0.00
2013-8-24,90,78,69,-100,-100,-100,0,0,100,0.00,40.00,6,3,9,0.00
2013-8-25,95,84,68,-100,-100,-100,0,0,100,0.00,40.00,8,3,9,0.00
2013-8-26,91,80,71,-100,-100,-100,0,0,100,0.00,40.00,6,-24,9,0.00
2013-8-27,76,72,69,-100,-100,-100,0,0,100,0.00,40.00,4,2,6,0.00
2013-8-28,76,72,67,-100,-100,-100,0,0,100,0.00,40.00,3,1,4,0.00
2013-8-29,80,70,64,-100,-100,-100,0,0,100,0.00,40.00,4,1,4,0.00
2013-8-30,97,74,62,-100,-100,-100,0,0,100,0.00,40.00,3,1,3,0.00
2013-8-31,103,77,65,-100,-100,-100,0,0,100,0.00,40.00,1,0,3,0.00
2013-9-1,101,81,70,-100,-100,-100,0,0,100,0.00,40.00,5,-84,6,0.00
2013-9-2,98,83,69,-100,-100,-100,0,0,100,0.00,40.00,5,3,7,0.00
2013-9-3,94,81,70,-100,-100,-100,0,0,100,0.00,40.00,5,2,6,0.00
2013-9-4,94,84,72,-100,-100,-100,0,0,100,0.00,40.00,5,3,9,0.00
2013-9-5,96,83,73,-100,-100,-100,0,0,100,0.00,40.00,6,4,7,0.00
2013-9-6,96,81,73,-100,-100,-100,0,0,100,0.00,40.00,5,3,7,0.00
2013-9-7,97,81,73,-100,-100,-100,0,0,100,0.00,40.00,5,3,6,0.00
2013-9-8,97,82,72,-100,-100,-100,0,0,100,0.00,40.00,6,4,8,0.00
2013-9-9,93,76,69,-100,-100,-100,0,0,100,0.00,40.00,6,4,8,0.00
2013-9-10,75,67,63,-100,-100,-100,0,0,100,0.00,40.00,4,2,6,0.00
2013-9-11,83,70,65,-100,-100,-100,0,0,100,0.00,40.00,4,2,6,0.00
2013-9-12,68,66,64,-100,-100,-100,0,0,100,0.00,40.00,5,2,5,0.00
2013-9-13,77,69,63,-100,-100,-100,0,0,100,0.00,40.00,6,3,7,0.00
2013-9-14,87,72,67,-100,-100,-100,0,0,100,0.00,40.00,5,3,6,0.00
2013-9-15,91,74,65,-100,-100,-100,0,0,100,0.00,40.00,5,3,7,0.00
2013-9-16,88,74,66,-100,-100,-100,0,0,100,0.00,40.00,5,-42,7,0.00
2013-9-17,89,72,65,-100,-100,-100,0,0,100,0.00,40.00,6,4,7,0.00
2013-9-18,76,70,65,-100,-100,-100,0,0,100,0.00,40.00,4,3,6,0.00
2013-9-19,90,73,66,-100,-100,-100,0,0,100,0.00,40.00,6,2,8,0.00
2013-9-20,87,70,62,-100,-100,-100,0,0,100,0.00,40.00,7,3,8,0.00
2013-9-21,83,69,60,-100,-100,-100,0,0,100,0.00,40.00,5,2,8,0.00
2013-9-22,89,72,59,-100,-100,-100,0,0,100,0.00,40.00,6,2,6,0.00
2013-9-23,80,69,62,-100,-100,-100,0,0,100,0.00,40.00,4,1,5,0.00
2013-9-24,90,64,52,-100,-100,-100,0,0,100,0.00,40.00,2,-94,2,0.00
2013-9-25,94,71,57,-100,-100,-100,0,0,100,0.00,40.00,3,1,4,0.00
2013-9-26,94,72,64,-100,-100,-100,0,0,100,0.00,40.00,3,1,4,0.00
2013-9-27,92,74,65,-100,-100,-100,0,0,100,0.00,40.00,5,2,6,0.00
2013-9-28,83,60,54,-100,-100,-100,0,0,100,0.00,40.00,4,1,5,0.00
2013-9-29,69,55,46,-100,-100,-100,0,0,100,0.00,40.00,1,0,3,0.00
2013-9-30,94,64,53,-100,-100,-100,0,0,100,0.00,40.00,3,1,5,0.00
2013-10-1,65,65,65,-100,-100,-100,0,0,100,0.00,40.00,0,0,1,0.00
2013-10-2,82,64,55,-100,-100,-100,0,0,100,0.00,40.00,3,2,5,0.00
2013-10-3,73,60,54,-100,-100,-100,0,0,100,0.00,40.00,1,0,2,0.00
2013-10-4,91,72,60,-100,-100,-100,0,0,100,0.00,40.00,3,2,4,0.00
2013-10-5,79,58,51,-100,-100,-100,0,0,100,0.00,40.00,4,2,6,0.00
2013-10-6,80,56,45,-100,-100,-100,0,0,100,0.00,40.00,2,1,3,0.00
2013-10-7,84,60,41,-100,-100,-100,0,0,100,0.00,40.00,3,1,5,0.00
2013-10-8,91,61,48,-100,-100,-100,0,0,100,0.00,40.00,2,1,3,0.00
2013-10-9,88,80,58,-100,-100,-100,0,0,100,0.00,40.00,3,1,7,0.00
2013-10-10,87,75,60,-100,-100,-100,0,0,100,0.00,40.00,9,3,10,0.00
2013-10-11,60,53,46,-100,-100,-100,0,0,100,0.00,40.00,1,1,4,0.00
2013-10-12,84,66,47,-100,-100,-100,0,0,100,0.00,40.00,5,2,6,0.00
2013-10-13,82,72,57,-100,-100,-100,0,0,100,0.00,40.00,6,3,6,0.00
2013-10-14,78,70,61,-100,-100,-100,0,0,100,0.00,40.00,3,1,4,0.00
2013-10-15,76,64,56,-100,-100,-100,0,0,100,0.00,40.00,5,2,10,0.00
2013-10-16,70,56,52,-100,-100,-100,0,0,100,0.00,40.00,7,4,10,0.00
2013-10-17,80,56,42,-100,-100,-100,0,0,100,0.00,40.00,2,1,3,0.00
2013-10-18,80,55,41,-100,-100,-100,0,0,100,0.00,40.00,5,1,8,0.00
2013-10-19,75,53,43,-100,-100,-100,0,0,100,0.00,40.00,7,3,8,0.00
2013-10-20,83,49,40,-100,-100,-100,0,0,100,0.00,40.00,3,1,4,0.00
2013-10-21,74,61,42,-100,-100,-100,0,0,100,0.00,40.00,7,3,9,0.00
2013-10-22,76,59,43,-100,-100,-100,0,0,100,0.00,40.00,4,2,6,0.00
2013-10-23,83,58,43,-100,-100,-100,0,0,100,0.00,40.00,4,2,5,0.00
2013-10-24,84,66,52,-100,-100,-100,0,0,100,0.00,40.00,5,3,7,0.00
2013-10-25,81,68,58,-100,-100,-100,0,0,100,0.00,40.00,7,4,9,0.00
2013-10-26,80,60,49,-100,-100,-100,0,0,100,0.00,40.00,4,2,4,0.00
2013-10-27,77,62,48,-100,-100,-100,0,0,100,0.00,40.00,5,3,7,0.00
2013-10-28,80,61,51,-100,-100,-100,0,0,100,0.00,40.00,3,1,6,0.00
2013-10-29,74,64,59,-100,-100,-100,0,0,100,0.00,40.00,2,1,2,0.00
2013-10-30,71,65,55,-100,-100,-100,0,0,100,0.00,40.00,4,2,6,0.00
2013-10-31,73,49,39,-100,-100,-100,0,0,100,0.00,40.00,4,2,5,0.00
2013-11-1,54,45,36,-100,-100,-100,0,0,100,0.00,40.00,2,1,2,0.00
2013-11-2,74,53,36,-100,-100,-100,0,0,100,0.00,40.00,5,-37,7,0.00
2013-11-3,80,62,51,-100,-100,-100,0,0,100,0.00,40.00,5,2,6,0.00
2013-11-4,76,60,48,-100,-100,-100,0,0,100,0.00,40.00,5,1,5,0.00
2013-11-5,71,59,51,-100,-100,-100,0,0,100,0.00,40.00,3,-132,4,0.00
2013-11-6,70,45,39,-100,-100,-100,0,0,100,0.00,40.00,3,2,6,0.00
2013-11-7,70,52,34,-100,-100,-100,0,0,100,0.00,40.00,6,2,6,0.00
2013-11-8,76,56,47,-100,-100,-100,0,0,100,0.00,40.00,6,-67,6,0.00
2013-11-9,76,58,47,-100,-100,-100,0,0,100,0.00,40.00,3,1,3,0.00
2013-11-10,78,59,40,-100,-100,-100,0,0,100,0.00,40.00,5,1,6,0.00
2013-11-11,81,60,43,-100,-100,-100,0,0,100,0.00,40.00,5,2,6,0.00
2013-11-12,62,54,43,-100,-100,-100,0,0,100,0.00,40.00,10,6,12,0.00
2013-11-13,62,50,40,-100,-100,-100,0,0,100,0.00,40.00,7,4,9,0.00
2013-11-14,75,51,41,-100,-100,-100,0,0,100,0.00,40.00,3,0,3,0.00
2013-11-15,71,58,46,-100,-100,-100,0,0,100,0.00,40.00,3,1,6,0.00
2013-11-16,70,57,51,-100,-100,-100,0,0,100,0.00,40.00,4,1,6,0.00
2013-11-17,54,50,46,-100,-100,-100,0,0,100,0.00,40.00,2,1,3,0.00
2013-11-18,73,56,47,-100,-100,-100,0,0,100,0.00,40.00,3,1,4,0.00
2013-11-19,72,52,43,-100,-100,-100,0,0,100,0.00,40.00,2,0,3,0.00
2013-11-20,75,61,47,-100,-100,-100,0,0,100,0.00,40.00,2,1,5,0.00
2013-11-21,78,58,46,-100,-100,-100,0,0,100,0.00,40.00,3,1,6,0.00
2013-11-22,57,42,33,-100,-100,-100,0,0,100,0.00,40.00,11,8,14,0.00
2013-11-23,38,34,28,-100,-100,-100,0,0,100,0.00,40.00,9,5,11,0.00
2013-11-24,35,30,26,-100,-100,-100,0,0,100,0.00,40.00,5,3,7,0.00
2013-11-25,42,35,32,-100,-100,-100,0,0,100,0.00,40.00,2,1,4,0.00
2013-11-26,58,42,26,-100,-100,-100,0,0,100,0.00,40.00,4,1,5,0.00
2013-11-27,51,41,31,-100,-100,-100,0,0,100,0.00,40.00,5,2,6,0.00
2013-11-28,63,46,26,-100,-100,-100,0,0,100,0.00,40.00,3,1,5,0.00
2013-11-29,69,46,32,-100,-100,-100,0,0,100,0.00,40.00,2,0,4,0.00
2013-11-30,68,44,36,-100,-100,-100,0,0,100,0.00,40.00,2,1,2,0.00
2013-12-1,57,50,43,-100,-100,-100,0,0,100,0.00,40.00,2,0,3,0.00
2013-12-2,54,40,32,-100,-100,-100,0,0,100,0.00,40.00,2,1,3,0.00
2013-12-3,74,51,40,-100,-100,-100,0,0,100,0.00,40.00,3,2,6,0.00
2013-12-4,74,56,47,-100,-100,-100,0,0,100,0.00,40.00,5,2,9,0.00
2013-12-5,57,50,40,-100,-100,-100,0,0,100,0.00,40.00,4,1,5,0.00
2013-12-6,57,38,32,-100,-100,-100,0,0,100,0.00,40.00,5,1,7,0.00
2013-12-7,43,35,31,-100,-100,-100,0,0,100,0.00,40.00,9,5,9,0.00
2013-12-8,61,40,25,-100,-100,-100,0,0,100,0.00,40.00,4,1,6,0.00
2013-12-9,48,37,29,-100,-100,-100,0,0,100,0.00,40.00,5,1,5,0.00
2013-12-10,51,30,20,-100,-100,-100,0,0,100,0.00,40.00,3,1,4,0.00
2013-12-11,58,38,27,-100,-100,-100,0,0,100,0.00,40.00,6,2,7,0.00
2013-12-12,47,40,36,-100,-100,-100,0,0,100,0.00,40.00,5,2,7,0.00
2013-12-13,61,40,32,-100,-100,-100,0,0,100,0.00,40.00,5,-67,6,0.00
2013-12-14,58,45,31,-100,-100,-100,0,0,100,0.00,40.00,5,2,7,0.00
2013-12-15,43,32,26,-100,-100,-100,0,0,100,0.00,40.00,2,1,5,0.00
2013-12-16,63,36,26,-100,-100,-100,0,0,100,0.00,40.00,2,1,3,0.00
2013-12-17,50,38,29,-100,-100,-100,0,0,100,0.00,40.00,2,0,2,0.00
2013-12-18,53,42,30,-100,-100,-100,0,0,100,0.00,40.00,1,1,2,0.00
2013-12-19,61,41,32,-100,-100,-100,0,0,100,0.00,40.00,2,0,4,0.00
2013-12-20,57,49,38,-100,-100,-100,0,0,100,0.00,40.00,3,2,4,0.00
2013-12-21,47,38,32,-100,-100,-100,0,0,100,0.00,40.00,7,3,8,0.00
2013-12-22,58,37,32,-100,-100,-100,0,0,100,0.00,40.00,2,1,3,0.00
2013-12-23,48,34,25,-100,-100,-100,0,0,100,0.00,40.00,2,1,3,0.00
2013-12-24,62,35,25,-100,-100,-100,0,0,100,0.00,40.00,2,0,3,0.00
2013-12-25,58,41,29,-100,-100,-100,0,0,100,0.00,40.00,4,2,7,0.00
2013-12-26,42,35,29,-100,-100,-100,0,0,100,0.00,40.00,3,1,5,0.00
2013-12-27,58,35,25,-100,-100,-100,0,0,100,0.00,40.00,4,1,5,0.00
2013-12-28,47,32,23,-100,-100,-100,0,0,100,0.00,40.00,2,0,2,0.00
2013-12-29,55,43,34,-100,-100,-100,0,0,100,0.00,40.00,6,2,8,0.00
2013-12-30,44,35,27,-100,-100,-100,0,0,100,0.00,40.00,4,2,6,0.00
2013-12-31,43,37,26,-100,-100,-100,0,0,100,0.00,40.00,3,1,6,0.00
2014-1-1,55,41,26,-100,-100,-100,0,0,100,0.00,40.00,1,0,3,0.00
2014-1-2,60,45,38,-100,-100,-100,0,0,100,0.00,40.00,5,2,8,0.00